createdAt,value
2022-09-10T00:01:22.228Z,8.13
2022-09-10T00:03:50.377Z,8.43
2022-09-10T00:06:19.010Z,7.70
2022-09-10T00:08:47.399Z,7.65
2022-09-10T00:11:15.463Z,7.75
2022-09-10T00:13:43.818Z,11.40
2022-09-10T00:16:14.703Z,10.70
2022-09-10T00:18:43.517Z,7.80
2022-09-10T00:21:14.391Z,7.18
2022-09-10T00:23:44.001Z,7.00
2022-09-10T00:26:21.943Z,6.20
2022-09-10T00:28:54.649Z,6.97
2022-09-10T00:31:23.783Z,8.68
2022-09-10T00:33:52.630Z,9.88
2022-09-10T00:36:28.820Z,8.60
2022-09-10T00:38:58.834Z,7.70
2022-09-10T00:41:26.832Z,8.50
2022-09-10T00:43:57.120Z,9.20
2022-09-10T00:46:29.748Z,8.05
2022-09-10T00:49:00.066Z,8.38
2022-09-10T00:51:31.146Z,10.18
2022-09-10T00:56:28.371Z,6.55
2022-09-10T00:58:56.330Z,10.18
2022-09-10T01:01:23.799Z,7.70
2022-09-10T01:03:52.351Z,7.20
2022-09-10T01:06:19.732Z,8.50
2022-09-10T01:08:47.124Z,7.22
2022-09-10T01:11:28.603Z,9.48
2022-09-10T01:14:14.401Z,7.93
2022-09-10T01:17:03.727Z,9.48
2022-09-10T01:19:54.269Z,6.43
2022-09-10T01:22:59.921Z,9.20
2022-09-10T01:25:29.974Z,8.60
2022-09-10T01:28:00.442Z,8.93
2022-09-10T01:30:34.945Z,7.10
2022-09-10T01:33:20.436Z,7.55
2022-09-10T01:36:02.004Z,9.82
2022-09-10T01:38:31.853Z,7.60
2022-09-10T01:40:59.899Z,9.90
2022-09-10T01:43:27.860Z,8.65
2022-09-10T01:46:19.372Z,8.10
2022-09-10T01:49:10.472Z,7.97
2022-09-10T01:52:01.868Z,7.07
2022-09-10T01:57:45.519Z,7.65
2022-09-10T02:00:15.114Z,7.03
2022-09-10T02:03:14.259Z,8.35
2022-09-10T02:05:43.687Z,7.30
2022-09-10T02:08:24.178Z,10.60
2022-09-10T02:10:57.775Z,8.32
2022-09-10T02:13:27.511Z,6.78
2022-09-10T02:15:56.729Z,7.90
2022-09-10T02:18:26.283Z,7.55
2022-09-10T02:20:56.479Z,9.48
2022-09-10T02:23:31.541Z,7.90
2022-09-10T02:25:59.256Z,8.77
2022-09-10T02:28:27.505Z,6.93
2022-09-10T02:30:55.262Z,6.78
2022-09-10T02:33:22.664Z,7.03
2022-09-10T02:35:50.098Z,9.05
2022-09-10T02:38:18.319Z,8.27
2022-09-10T02:40:49.185Z,6.45
2022-09-10T02:43:17.544Z,7.18
2022-09-10T02:45:45.393Z,8.20
2022-09-10T02:48:13.128Z,7.90
2022-09-10T02:50:40.823Z,7.35
2022-09-10T02:53:08.293Z,8.20
2022-09-10T02:55:35.684Z,7.43
2022-09-10T02:58:03.127Z,7.78
2022-09-10T03:00:32.056Z,9.60
2022-09-10T03:03:02.963Z,6.32
2022-09-10T03:07:58.061Z,7.63
2022-09-10T03:10:25.452Z,6.90
2022-09-10T03:12:54.024Z,8.48
2022-09-10T03:15:23.030Z,9.40
2022-09-10T03:17:51.533Z,8.70
2022-09-10T03:20:18.984Z,6.80
2022-09-10T03:22:46.355Z,6.70
2022-09-10T03:25:13.789Z,8.77
2022-09-10T03:27:41.144Z,8.15
2022-09-10T03:30:09.409Z,9.68
2022-09-10T03:32:37.390Z,9.45
2022-09-10T03:35:05.163Z,11.05
2022-09-10T03:37:33.667Z,7.00
2022-09-10T03:40:01.262Z,10.00
2022-09-10T03:42:28.759Z,9.00
2022-09-10T03:44:56.816Z,9.60
2022-09-10T03:47:24.496Z,10.95
2022-09-10T03:49:51.949Z,9.68
2022-09-10T03:52:19.427Z,9.13
2022-09-10T03:54:46.753Z,8.93
2022-09-10T03:57:14.075Z,9.75
2022-09-10T03:59:41.460Z,10.25
2022-09-10T04:02:11.615Z,9.73
2022-09-10T04:04:39.146Z,9.77
2022-09-10T04:07:07.256Z,10.20
2022-09-10T04:09:34.915Z,10.82
2022-09-10T04:12:03.865Z,9.30
2022-09-10T04:14:31.358Z,10.38
2022-09-10T04:16:59.032Z,9.90
2022-09-10T04:19:27.981Z,11.70
2022-09-10T04:21:55.543Z,11.43
2022-09-10T04:24:22.904Z,9.90
2022-09-10T04:26:50.398Z,9.60
2022-09-10T04:29:18.102Z,10.20
2022-09-10T04:31:46.966Z,10.70
2022-09-10T04:34:14.552Z,9.88
2022-09-10T04:36:42.080Z,11.43
2022-09-10T04:39:09.902Z,11.63
2022-09-10T04:41:37.213Z,10.57
2022-09-10T04:44:04.562Z,12.13
2022-09-10T04:46:32.241Z,9.20
2022-09-10T04:49:00.371Z,8.98
2022-09-10T04:51:28.135Z,7.63
2022-09-10T04:53:55.563Z,11.10
2022-09-10T04:56:23.044Z,12.25
2022-09-10T04:58:50.440Z,9.57
2022-09-10T05:01:17.861Z,10.50
2022-09-10T05:03:45.262Z,9.60
2022-09-10T05:06:12.688Z,8.32
2022-09-10T05:08:40.230Z,8.80
2022-09-10T05:11:07.764Z,9.98
2022-09-10T05:13:35.156Z,7.13
2022-09-10T05:16:02.616Z,8.57
2022-09-10T05:18:30.318Z,7.93
2022-09-10T05:20:57.820Z,8.38
2022-09-10T05:23:26.378Z,10.68
2022-09-10T05:25:53.979Z,11.38
2022-09-10T05:28:24.444Z,11.57
2022-09-10T05:30:52.076Z,10.82
2022-09-10T05:33:19.887Z,10.60
2022-09-10T05:35:51.870Z,11.30
2022-09-10T05:38:20.075Z,9.73
2022-09-10T05:40:48.279Z,10.35
2022-09-10T05:43:15.738Z,10.27
2022-09-10T05:45:43.216Z,9.73
2022-09-10T05:48:10.692Z,13.18
2022-09-10T05:50:38.662Z,10.35
2022-09-10T05:53:06.398Z,12.25
2022-09-10T05:55:33.743Z,14.30
2022-09-10T05:58:01.262Z,10.60
2022-09-10T06:00:28.883Z,9.82
2022-09-10T06:02:57.374Z,15.40
2022-09-10T06:05:24.920Z,11.82
2022-09-10T06:07:52.693Z,13.20
2022-09-10T06:10:20.153Z,14.95
2022-09-10T06:12:48.611Z,16.45
2022-09-10T06:15:16.513Z,12.48
2022-09-10T06:17:45.883Z,11.85
2022-09-10T06:20:13.679Z,10.43
2022-09-10T06:22:41.276Z,12.13
2022-09-10T06:25:09.180Z,13.57
2022-09-10T06:27:36.583Z,15.38
2022-09-10T06:30:04.414Z,14.40
2022-09-10T06:32:33.009Z,11.63
2022-09-10T06:35:00.513Z,11.23
2022-09-10T06:37:28.012Z,10.25
2022-09-10T06:39:55.456Z,8.57
2022-09-10T06:42:24.029Z,8.82
2022-09-10T06:44:52.202Z,8.73
2022-09-10T06:48:01.072Z,8.95
2022-09-10T06:50:09.075Z,11.30
2022-09-10T06:52:36.672Z,9.43
2022-09-10T06:55:04.976Z,10.07
2022-09-10T06:57:32.392Z,10.45
2022-09-10T06:59:59.862Z,9.82
2022-09-10T07:02:27.268Z,10.85
2022-09-10T07:04:54.675Z,12.32
2022-09-10T07:07:22.148Z,14.52
2022-09-10T07:09:49.505Z,11.70
2022-09-10T07:12:17.353Z,12.82
2022-09-10T07:14:44.840Z,13.07
2022-09-10T07:17:12.213Z,14.82
2022-09-10T07:19:39.825Z,14.23
2022-09-10T07:22:07.238Z,12.98
2022-09-10T07:24:34.720Z,16.40
2022-09-10T07:27:02.109Z,15.20
2022-09-10T07:29:31.260Z,17.77
2022-09-10T07:31:58.803Z,14.70
2022-09-10T07:34:26.334Z,12.98
2022-09-10T07:36:55.818Z,11.40
2022-09-10T07:39:25.734Z,15.27
2022-09-10T07:41:53.531Z,13.07
2022-09-10T07:44:20.934Z,15.18
2022-09-10T07:46:48.272Z,13.13
2022-09-10T07:49:15.903Z,12.82
2022-09-10T07:51:43.381Z,13.10
2022-09-10T07:54:11.113Z,14.00
2022-09-10T07:56:39.651Z,14.05
2022-09-10T07:59:07.243Z,11.45
2022-09-10T08:01:35.744Z,12.00
2022-09-10T08:04:05.264Z,14.73
2022-09-10T08:06:34.201Z,13.63
2022-09-10T08:09:04.327Z,15.07
2022-09-10T08:11:33.061Z,17.20
2022-09-10T08:14:03.189Z,14.00
2022-09-10T08:16:30.590Z,18.10
2022-09-10T08:18:58.117Z,12.60
2022-09-10T08:21:29.041Z,15.63
2022-09-10T08:23:56.524Z,10.80
2022-09-10T08:26:25.785Z,16.85
2022-09-10T08:28:56.089Z,15.25
2022-09-10T08:31:24.999Z,12.48
2022-09-10T08:33:54.899Z,12.07
2022-09-10T08:36:23.521Z,14.30
2022-09-10T08:38:56.995Z,12.65
2022-09-10T08:41:39.730Z,13.25
2022-09-10T08:44:10.300Z,10.85
2022-09-10T08:47:15.207Z,12.40
2022-09-10T08:49:45.602Z,13.30
2022-09-10T08:52:29.875Z,11.38
2022-09-10T08:55:19.133Z,11.75
2022-09-10T08:57:57.880Z,11.05
2022-09-10T09:00:29.297Z,11.10
2022-09-10T09:03:22.213Z,13.88
2022-09-10T09:06:02.173Z,10.60
2022-09-10T09:08:43.767Z,9.73
2022-09-10T09:11:34.797Z,11.73
2022-09-10T09:14:25.255Z,13.05
2022-09-10T09:17:30.277Z,10.27
2022-09-10T09:20:19.511Z,12.13
2022-09-10T09:23:14.434Z,10.05
2022-09-10T09:26:10.063Z,9.35
2022-09-10T09:28:46.579Z,10.13
2022-09-10T09:31:28.718Z,9.65
2022-09-10T09:34:01.127Z,12.23
2022-09-10T09:36:43.500Z,11.30
2022-09-10T09:39:25.625Z,10.23
2022-09-10T09:42:32.806Z,13.15
2022-09-10T09:45:16.825Z,12.88
2022-09-10T09:47:47.775Z,15.73
2022-09-10T09:50:18.554Z,13.68
2022-09-10T09:52:46.933Z,14.50
2022-09-10T09:55:38.992Z,15.40
2022-09-10T09:58:21.148Z,16.75
2022-09-10T10:01:03.344Z,15.70
2022-09-10T10:04:02.917Z,14.65
2022-09-10T10:06:33.337Z,15.00
2022-09-10T10:09:20.217Z,17.42
2022-09-10T10:11:59.595Z,16.65
2022-09-10T10:14:39.400Z,16.38
2022-09-10T10:17:25.039Z,18.25
2022-09-10T10:20:07.864Z,21.95
2022-09-10T10:22:37.166Z,22.95
2022-09-10T10:25:25.912Z,23.27
2022-09-10T10:27:54.548Z,24.35
2022-09-10T10:30:25.058Z,26.10
2022-09-10T10:33:02.014Z,23.25
2022-09-10T10:35:57.658Z,22.70
2022-09-10T10:38:37.715Z,20.33
2022-09-10T10:41:20.308Z,21.33
2022-09-10T10:44:33.767Z,16.88
2022-09-10T10:47:28.341Z,15.30
2022-09-10T10:50:13.001Z,22.40
2022-09-10T10:52:45.926Z,18.05
2022-09-10T10:55:28.038Z,19.90
2022-09-10T10:58:15.720Z,16.58
2022-09-10T11:00:55.987Z,17.15
2022-09-10T11:03:44.387Z,17.87
2022-09-10T11:06:20.401Z,17.73
2022-09-10T11:08:55.241Z,16.00
2022-09-10T11:11:32.462Z,15.95
2022-09-10T11:14:27.459Z,15.82
2022-09-10T11:17:01.228Z,16.13
2022-09-10T11:19:37.406Z,16.70
2022-09-10T11:22:24.006Z,17.83
2022-09-10T11:25:33.589Z,19.02
2022-09-10T11:28:11.944Z,17.48
2022-09-10T11:30:42.798Z,18.80
2022-09-10T11:33:39.609Z,19.63
2022-09-10T11:36:19.021Z,17.08
2022-09-10T11:39:05.793Z,21.25
2022-09-10T11:41:35.733Z,18.83
2022-09-10T11:44:21.844Z,20.73
2022-09-10T11:47:15.995Z,18.63
2022-09-10T11:49:56.939Z,22.58
2022-09-10T11:52:30.202Z,23.83
2022-09-10T11:54:58.945Z,20.73
2022-09-10T11:57:36.833Z,22.25
2022-09-10T12:00:17.203Z,22.90
2022-09-10T12:03:06.474Z,25.83
2022-09-10T12:06:23.460Z,25.52
2022-09-10T12:09:07.155Z,22.23
2022-09-10T12:11:42.615Z,24.65
2022-09-10T12:14:19.642Z,26.48
2022-09-10T12:16:57.445Z,24.67
2022-09-10T12:19:27.857Z,27.42
2022-09-10T12:22:01.355Z,25.23
2022-09-10T12:24:35.182Z,22.88
2022-09-10T12:27:05.483Z,24.77
2022-09-10T12:29:34.590Z,26.60
2022-09-10T12:32:21.816Z,30.83
2022-09-10T12:35:30.125Z,24.85
2022-09-10T12:38:34.618Z,23.67
2022-09-10T12:41:21.497Z,24.75
2022-09-10T12:43:49.188Z,23.08
2022-09-10T12:46:21.952Z,22.05
2022-09-10T12:48:57.591Z,21.08
2022-09-10T12:51:58.884Z,19.70
2022-09-10T12:54:55.850Z,18.13
2022-09-10T12:57:53.466Z,16.35
2022-09-10T13:00:23.457Z,18.45
2022-09-10T13:02:50.875Z,15.90
2022-09-10T13:05:44.337Z,16.60
2022-09-10T13:08:16.658Z,14.90
2022-09-10T13:10:47.270Z,15.30
2022-09-10T13:13:35.396Z,17.60
2022-09-10T13:16:05.055Z,18.15
2022-09-10T13:18:35.215Z,16.60
2022-09-10T13:21:23.982Z,13.03
2022-09-10T13:23:52.970Z,12.00
2022-09-10T13:26:29.321Z,13.25
2022-09-10T13:29:04.930Z,13.75
2022-09-10T13:31:45.200Z,12.63
2022-09-10T13:34:15.614Z,14.40
2022-09-10T13:36:48.330Z,12.85
2022-09-10T13:39:28.076Z,12.57
2022-09-10T13:42:03.528Z,12.77
2022-09-10T13:44:56.140Z,14.40
2022-09-10T13:47:33.697Z,12.13
2022-09-10T13:50:06.933Z,12.20
2022-09-10T13:52:36.440Z,11.07
2022-09-10T13:55:08.272Z,11.27
2022-09-10T13:57:41.059Z,11.02
2022-09-10T14:00:37.019Z,10.98
2022-09-10T14:03:21.047Z,10.80
2022-09-10T14:05:58.655Z,8.57
2022-09-10T14:08:32.799Z,9.05
2022-09-10T14:11:14.863Z,9.98
2022-09-10T14:13:55.619Z,12.18
2022-09-10T14:16:40.981Z,10.20
2022-09-10T14:19:16.042Z,9.93
2022-09-10T14:21:43.851Z,12.77
2022-09-10T14:24:29.892Z,12.52
2022-09-10T14:27:18.645Z,13.50
2022-09-10T14:29:46.949Z,16.10
2022-09-10T14:32:26.140Z,18.17
2022-09-10T14:34:54.235Z,20.58
2022-09-10T14:37:30.087Z,21.02
2022-09-10T14:40:02.096Z,23.52
2022-09-10T14:42:35.097Z,26.60
2022-09-10T14:45:03.395Z,26.63
2022-09-10T14:47:37.329Z,28.42
2022-09-10T14:50:31.264Z,30.27
2022-09-10T14:52:59.269Z,33.13
2022-09-10T14:55:29.310Z,34.20
2022-09-10T14:57:57.521Z,34.72
2022-09-10T15:00:27.923Z,39.15
2022-09-10T15:02:58.660Z,39.63
2022-09-10T15:05:26.074Z,43.85
2022-09-10T15:07:53.663Z,43.65
2022-09-10T15:10:21.144Z,43.53
2022-09-10T15:12:50.004Z,42.22
2022-09-10T15:15:18.134Z,44.15
2022-09-10T15:17:45.831Z,43.88
2022-09-10T15:20:15.342Z,43.00
2022-09-10T15:22:43.480Z,40.28
2022-09-10T15:25:39.111Z,42.08
2022-09-10T15:28:09.840Z,39.40
2022-09-10T15:30:37.322Z,43.22
2022-09-10T15:33:07.634Z,37.72
2022-09-10T15:35:35.186Z,36.75
2022-09-10T15:38:02.658Z,35.92
2022-09-10T15:40:30.169Z,36.17
2022-09-10T15:42:58.057Z,36.40
2022-09-10T15:45:25.530Z,35.58
2022-09-10T15:47:55.016Z,32.40
2022-09-10T15:50:22.466Z,33.42
2022-09-10T15:52:50.018Z,33.88
2022-09-10T15:55:19.412Z,34.88
2022-09-10T15:57:51.019Z,34.50
2022-09-10T16:00:20.166Z,34.35
2022-09-10T16:02:54.428Z,39.08
2022-09-10T16:05:21.859Z,38.70
2022-09-10T16:07:49.672Z,38.53
2022-09-10T16:10:17.757Z,36.45
2022-09-10T16:12:45.184Z,36.97
2022-09-10T16:15:12.561Z,35.53
2022-09-10T16:17:40.991Z,38.28
2022-09-10T16:20:08.967Z,37.40
2022-09-10T16:22:36.988Z,35.97
2022-09-10T16:25:07.366Z,35.25
2022-09-10T16:27:34.999Z,39.05
2022-09-10T16:30:02.345Z,35.20
2022-09-10T16:32:30.663Z,38.95
2022-09-10T16:34:58.254Z,41.13
2022-09-10T16:37:26.280Z,34.55
2022-09-10T16:39:53.810Z,33.83
2022-09-10T16:42:21.331Z,34.47
2022-09-10T16:44:49.301Z,34.35
2022-09-10T16:47:16.661Z,34.35
2022-09-10T16:49:44.605Z,33.67
2022-09-10T16:52:12.227Z,34.03
2022-09-10T16:54:40.343Z,30.35
2022-09-10T16:57:07.914Z,33.17
2022-09-10T16:59:35.519Z,29.85
2022-09-10T17:02:03.255Z,26.45
2022-09-10T17:04:32.528Z,33.20
2022-09-10T17:06:59.929Z,21.40
2022-09-10T17:09:27.506Z,22.45
2022-09-10T17:11:55.529Z,25.48
2022-09-10T17:14:23.148Z,25.23
2022-09-10T17:16:50.616Z,25.27
2022-09-10T17:19:23.826Z,22.67
2022-09-10T17:21:53.339Z,18.02
2022-09-10T17:24:23.957Z,17.88
2022-09-10T17:26:52.351Z,20.52
2022-09-10T17:29:22.439Z,22.15
2022-09-10T17:31:52.240Z,20.40
2022-09-10T17:34:21.662Z,20.50
2022-09-10T17:36:49.635Z,18.25
2022-09-10T17:39:17.707Z,18.42
2022-09-10T17:41:45.530Z,17.40
2022-09-10T17:44:13.653Z,17.33
2022-09-10T17:46:42.797Z,14.82
2022-09-10T17:49:14.702Z,17.77
2022-09-10T17:51:43.270Z,12.13
2022-09-10T17:54:11.080Z,14.70
2022-09-10T17:56:38.678Z,11.32
2022-09-10T17:59:06.706Z,7.57
2022-09-10T18:01:37.863Z,6.22
2022-09-10T18:04:06.740Z,6.05
2022-09-10T18:06:37.809Z,2.92
2022-09-10T18:11:36.937Z,8.82
2022-09-10T18:14:05.068Z,3.55
2022-09-10T18:16:34.521Z,3.85
2022-09-10T18:19:13.725Z,3.85
2022-09-10T18:21:43.905Z,2.15
2022-09-10T18:24:25.422Z,3.38
2022-09-10T18:26:54.179Z,1.60
2022-09-10T18:29:29.040Z,2.80
2022-09-10T18:31:58.589Z,1.67
2022-09-10T18:34:28.559Z,2.78
2022-09-10T18:36:58.779Z,3.55
2022-09-10T18:39:28.420Z,3.57
2022-09-10T18:41:57.367Z,1.80
2022-09-10T18:44:28.058Z,1.40
2022-09-10T18:46:56.193Z,1.85
2022-09-10T18:49:25.247Z,2.25
2022-09-10T18:51:54.481Z,1.98
2022-09-10T18:54:23.375Z,0.73
2022-09-10T18:56:51.135Z,1.15
2022-09-10T18:59:21.532Z,1.25
2022-09-10T19:01:50.588Z,2.22
2022-09-10T19:04:23.863Z,1.05
2022-09-10T19:06:51.751Z,0.90
2022-09-10T19:09:25.819Z,1.38
2022-09-10T19:11:55.404Z,1.05
2022-09-10T19:14:29.615Z,1.10
2022-09-10T19:16:58.929Z,2.40
2022-09-10T19:19:32.295Z,3.15
2022-09-10T19:22:07.313Z,0.82
2022-09-10T19:24:53.970Z,1.70
2022-09-10T19:27:22.904Z,3.03
2022-09-10T19:29:50.529Z,2.33
2022-09-10T19:32:19.874Z,4.15
2022-09-10T19:34:51.573Z,3.80
2022-09-10T19:37:19.760Z,2.05
2022-09-10T19:39:47.706Z,1.02
2022-09-10T19:42:15.317Z,1.10
2022-09-10T19:44:43.603Z,0.95
2022-09-10T19:47:11.003Z,1.30
2022-09-10T19:49:39.188Z,1.42
2022-09-10T19:52:06.718Z,1.17
2022-09-10T19:54:35.182Z,1.08
2022-09-10T19:57:02.655Z,1.52
2022-09-10T19:59:30.106Z,0.90
2022-09-10T20:01:57.555Z,1.65
2022-09-10T20:04:25.976Z,1.27
2022-09-10T20:06:53.434Z,3.65
2022-09-10T20:09:20.947Z,1.23
2022-09-10T20:11:48.417Z,0.77
2022-09-10T20:14:15.947Z,0.70
2022-09-10T20:16:45.399Z,0.73
2022-09-10T20:19:18.517Z,2.30
2022-09-10T20:21:47.800Z,2.25
2022-09-10T20:24:16.657Z,0.73
2022-09-10T20:26:45.491Z,1.73
2022-09-10T20:29:22.800Z,2.80
2022-09-10T20:31:50.267Z,1.10
2022-09-10T20:34:20.432Z,2.20
2022-09-10T20:36:51.508Z,2.27
2022-09-10T20:41:47.811Z,2.80
2022-09-10T20:44:16.943Z,0.73
2022-09-10T20:46:45.101Z,0.70
2022-09-10T20:49:13.863Z,1.27
2022-09-10T20:51:42.200Z,1.52
2022-09-10T20:54:16.670Z,0.60
2022-09-10T20:56:45.216Z,0.45
2022-09-10T20:59:15.679Z,4.45
2022-09-10T21:01:46.010Z,1.33
2022-09-10T21:04:14.117Z,1.15
2022-09-10T21:06:41.568Z,1.00
2022-09-10T21:09:09.414Z,0.60
2022-09-10T21:11:37.239Z,0.40
2022-09-10T21:14:07.169Z,0.75
2022-09-10T21:16:36.834Z,0.20
2022-09-10T21:19:08.015Z,1.40
2022-09-10T21:24:26.928Z,0.22
2022-09-10T21:29:22.326Z,1.00
2022-09-10T21:31:50.824Z,0.93
2022-09-10T21:34:19.388Z,0.38
2022-09-10T21:36:47.092Z,0.40
2022-09-10T21:39:16.721Z,0.32
2022-09-10T21:41:49.116Z,1.85
2022-09-10T21:44:22.194Z,2.08
2022-09-10T21:46:50.297Z,0.47
2022-09-10T21:49:18.455Z,0.73
2022-09-10T21:51:45.856Z,0.50
2022-09-10T21:54:15.371Z,1.52
2022-09-10T21:56:42.737Z,0.20
2022-09-10T21:59:10.757Z,1.27
2022-09-10T22:01:39.468Z,0.77
2022-09-10T22:04:06.896Z,0.30
2022-09-10T22:06:35.540Z,1.02
2022-09-10T22:09:06.660Z,1.95
2022-09-10T22:14:05.526Z,0.30
2022-09-10T22:16:34.839Z,2.10
2022-09-10T22:19:05.532Z,1.45
2022-09-10T22:21:33.338Z,1.80
2022-09-10T22:24:00.719Z,0.82
2022-09-10T22:26:28.398Z,0.30
2022-09-10T22:28:59.536Z,0.30
2022-09-10T22:33:57.998Z,0.35
2022-09-10T22:36:30.972Z,4.13
2022-09-10T22:39:05.045Z,0.70
2022-09-10T22:41:34.360Z,0.60
2022-09-10T22:44:02.826Z,2.00
2022-09-10T22:46:31.063Z,0.40
2022-09-10T22:48:58.641Z,1.38
2022-09-10T22:51:28.378Z,3.33
2022-09-10T22:53:57.218Z,2.03
2022-09-10T22:56:26.396Z,1.45
2022-09-10T22:58:55.693Z,1.75
2022-09-10T23:01:27.825Z,1.52
2022-09-10T23:04:00.459Z,0.85
2022-09-10T23:06:30.892Z,0.50
2022-09-10T23:09:04.005Z,0.98
2022-09-10T23:11:33.560Z,1.52
2022-09-10T23:14:07.521Z,1.58
2022-09-10T23:16:40.089Z,1.33
2022-09-10T23:19:13.175Z,1.20
2022-09-10T23:21:43.250Z,0.50
2022-09-10T23:24:16.418Z,1.40
2022-09-10T23:26:44.642Z,2.63
2022-09-10T23:29:12.831Z,0.47
2022-09-10T23:31:41.087Z,0.60
2022-09-10T23:34:12.296Z,1.02
2022-09-10T23:36:42.194Z,0.82
2022-09-10T23:39:14.259Z,1.48
2022-09-10T23:41:42.350Z,1.00
2022-09-10T23:44:10.062Z,0.40
2022-09-10T23:46:37.825Z,0.63
2022-09-10T23:49:06.938Z,3.67
2022-09-10T23:51:35.375Z,1.20
2022-09-10T23:54:03.053Z,1.20
2022-09-10T23:56:30.444Z,0.55
2022-09-10T23:59:00.969Z,0.68
